createdAt,value
2023-02-23T00:00:50.836Z,88.02
2023-02-23T00:03:24.508Z,88.01
2023-02-23T00:05:55.556Z,87.90
2023-02-23T00:08:28.422Z,87.97
2023-02-23T00:10:59.010Z,87.79
2023-02-23T00:13:32.013Z,87.99
2023-02-23T00:16:03.520Z,87.97
2023-02-23T00:18:45.228Z,87.94
2023-02-23T00:21:19.189Z,88.03
2023-02-23T00:23:55.111Z,88.01
2023-02-23T00:26:27.234Z,88.11
2023-02-23T00:28:57.569Z,88.19
2023-02-23T00:31:29.111Z,88.00
2023-02-23T00:34:04.701Z,88.19
2023-02-23T00:36:36.678Z,88.25
2023-02-23T00:39:18.677Z,88.07
2023-02-23T00:41:50.631Z,88.19
2023-02-23T00:44:21.949Z,88.12
2023-02-23T00:46:52.800Z,88.34
2023-02-23T00:49:27.108Z,88.14
2023-02-23T00:51:57.495Z,88.13
2023-02-23T00:54:28.524Z,88.02
2023-02-23T00:56:58.756Z,87.81
2023-02-23T00:59:30.058Z,87.96
2023-02-23T01:02:00.477Z,87.65
2023-02-23T01:04:34.213Z,87.49
2023-02-23T01:07:06.834Z,87.77
2023-02-23T01:09:38.313Z,87.50
2023-02-23T01:12:09.313Z,87.47
2023-02-23T01:14:43.146Z,87.16
2023-02-23T01:17:14.017Z,87.20
2023-02-23T01:19:49.158Z,86.67
2023-02-23T01:22:19.876Z,86.51
2023-02-23T01:24:50.844Z,86.43
2023-02-23T01:27:21.420Z,85.75
2023-02-23T01:29:54.347Z,85.22
2023-02-23T01:32:25.478Z,85.28
2023-02-23T01:34:59.267Z,84.85
2023-02-23T01:37:29.802Z,84.85
2023-02-23T01:40:00.354Z,84.94
2023-02-23T01:42:31.173Z,84.95
2023-02-23T01:45:39.393Z,84.91
2023-02-23T01:48:14.602Z,85.04
2023-02-23T01:50:55.796Z,84.93
2023-02-23T01:53:27.803Z,84.88
2023-02-23T01:56:03.912Z,84.94
2023-02-23T01:58:38.796Z,85.00
2023-02-23T02:01:11.497Z,84.96
2023-02-23T02:03:51.511Z,85.06
2023-02-23T02:06:29.022Z,85.23
2023-02-23T02:09:07.420Z,85.33
2023-02-23T02:11:39.954Z,85.19
2023-02-23T02:14:16.451Z,85.39
2023-02-23T02:17:07.982Z,85.52
2023-02-23T02:20:00.921Z,85.76
2023-02-23T02:23:13.370Z,85.57
2023-02-23T02:25:58.442Z,85.60
2023-02-23T02:29:16.585Z,85.85
2023-02-23T02:32:15.266Z,85.81
2023-02-23T02:35:22.121Z,85.76
2023-02-23T02:38:11.678Z,85.65
2023-02-23T02:40:57.501Z,85.75
2023-02-23T02:43:52.343Z,85.72
2023-02-23T02:46:31.278Z,85.60
2023-02-23T02:49:09.689Z,85.72
2023-02-23T02:51:51.059Z,85.83
2023-02-23T02:54:32.187Z,85.66
2023-02-23T02:57:06.446Z,85.53
2023-02-23T02:59:59.025Z,85.61
2023-02-23T03:02:43.407Z,85.82
2023-02-23T03:05:32.694Z,85.92
2023-02-23T03:08:24.720Z,85.99
2023-02-23T03:11:15.944Z,85.99
2023-02-23T03:14:13.399Z,86.09
2023-02-23T03:17:08.580Z,86.08
2023-02-23T03:19:57.422Z,86.33
2023-02-23T03:22:51.201Z,86.21
2023-02-23T03:25:40.147Z,86.13
2023-02-23T03:28:32.736Z,86.40
2023-02-23T03:31:25.875Z,86.37
2023-02-23T03:34:14.606Z,86.45
2023-02-23T03:37:05.061Z,86.49
2023-02-23T03:39:53.272Z,86.70
2023-02-23T03:42:42.821Z,86.55
2023-02-23T03:45:34.957Z,86.62
2023-02-23T03:48:20.604Z,86.64
2023-02-23T03:51:08.194Z,86.52
2023-02-23T03:53:57.370Z,86.33
2023-02-23T03:56:44.083Z,86.50
2023-02-23T03:59:30.925Z,86.38
2023-02-23T04:02:18.187Z,86.16
2023-02-23T04:05:02.125Z,86.41
2023-02-23T04:07:45.088Z,86.41
2023-02-23T04:10:28.761Z,86.51
2023-02-23T04:13:16.329Z,86.50
2023-02-23T04:15:50.878Z,86.27
2023-02-23T04:18:28.489Z,86.11
2023-02-23T04:21:00.203Z,86.17
2023-02-23T04:23:31.263Z,86.30
2023-02-23T04:26:01.708Z,86.49
2023-02-23T04:28:32.065Z,86.26
2023-02-23T04:31:03.845Z,86.57
2023-02-23T04:33:37.843Z,86.34
2023-02-23T04:36:19.409Z,86.26
2023-02-23T04:38:53.074Z,86.19
2023-02-23T04:41:27.578Z,86.04
2023-02-23T04:46:50.837Z,86.17
2023-02-23T04:49:24.960Z,86.27
2023-02-23T04:51:59.118Z,85.97
2023-02-23T04:54:31.720Z,85.97
2023-02-23T04:57:05.496Z,86.13
2023-02-23T04:59:45.285Z,85.93
2023-02-23T05:02:17.695Z,86.08
2023-02-23T05:04:53.084Z,85.90
2023-02-23T05:07:28.332Z,85.78
2023-02-23T05:09:59.063Z,85.78
2023-02-23T05:12:29.524Z,85.87
2023-02-23T05:14:59.908Z,85.73
2023-02-23T05:17:29.949Z,85.95
2023-02-23T05:20:02.984Z,85.84
2023-02-23T05:22:33.050Z,85.93
2023-02-23T05:25:04.295Z,86.13
2023-02-23T05:27:35.188Z,85.99
2023-02-23T05:30:05.121Z,86.15
2023-02-23T05:32:35.119Z,86.17
2023-02-23T05:35:09.078Z,86.19
2023-02-23T05:37:39.029Z,86.39
2023-02-23T05:40:11.133Z,86.19
2023-02-23T05:42:41.380Z,86.23
2023-02-23T05:45:11.522Z,86.14
2023-02-23T05:47:41.370Z,86.08
2023-02-23T05:50:14.990Z,86.13
2023-02-23T05:52:52.436Z,86.25
2023-02-23T05:55:23.302Z,86.39
2023-02-23T05:57:53.674Z,86.21
2023-02-23T06:00:25.193Z,86.33
2023-02-23T06:03:02.219Z,86.17
2023-02-23T06:05:36.936Z,86.33
2023-02-23T06:08:10.150Z,86.53
2023-02-23T06:10:43.471Z,86.57
2023-02-23T06:13:21.771Z,86.44
2023-02-23T06:15:52.931Z,86.26
2023-02-23T06:18:24.184Z,86.74
2023-02-23T06:20:58.460Z,86.54
2023-02-23T06:23:28.340Z,86.48
2023-02-23T06:25:58.812Z,86.37
2023-02-23T06:28:29.201Z,86.54
2023-02-23T06:31:00.315Z,86.51
2023-02-23T06:33:31.021Z,86.63
2023-02-23T06:36:03.833Z,86.66
2023-02-23T06:38:34.284Z,86.63
2023-02-23T06:41:10.033Z,86.46
2023-02-23T06:43:40.190Z,86.49
2023-02-23T06:46:10.624Z,86.38
2023-02-23T06:48:44.630Z,86.48
2023-02-23T06:51:18.419Z,86.58
2023-02-23T06:53:52.601Z,86.41
2023-02-23T06:56:22.849Z,86.38
2023-02-23T06:58:53.031Z,86.61
2023-02-23T07:01:27.466Z,86.46
2023-02-23T07:03:57.862Z,86.49
2023-02-23T07:06:31.605Z,86.54
2023-02-23T07:09:02.168Z,86.48
2023-02-23T07:11:32.176Z,86.30
2023-02-23T07:14:03.017Z,86.23
2023-02-23T07:16:33.702Z,86.42
2023-02-23T07:19:03.895Z,86.45
2023-02-23T07:21:37.053Z,86.30
2023-02-23T07:24:07.683Z,86.59
2023-02-23T07:26:37.983Z,86.59
2023-02-23T07:29:08.005Z,86.45
2023-02-23T07:31:38.071Z,86.20
2023-02-23T07:34:13.481Z,86.28
2023-02-23T07:36:48.861Z,86.24
2023-02-23T07:39:19.274Z,86.52
2023-02-23T07:41:49.355Z,86.52
2023-02-23T07:44:21.818Z,86.43
2023-02-23T07:46:52.994Z,86.69
2023-02-23T07:49:24.307Z,86.86
2023-02-23T07:51:57.168Z,86.80
2023-02-23T07:54:27.465Z,87.02
2023-02-23T07:56:57.369Z,87.20
2023-02-23T07:59:27.223Z,87.46
2023-02-23T08:01:57.313Z,87.56
2023-02-23T08:04:27.311Z,87.70
2023-02-23T08:07:02.541Z,87.51
2023-02-23T08:09:35.929Z,87.37
2023-02-23T08:12:10.584Z,87.41
2023-02-23T08:14:40.760Z,87.49
2023-02-23T08:17:12.220Z,87.16
2023-02-23T08:19:42.601Z,87.33
2023-02-23T08:22:15.483Z,87.38
2023-02-23T08:24:45.607Z,87.12
2023-02-23T08:27:17.703Z,87.28
2023-02-23T08:29:48.050Z,87.68
2023-02-23T08:32:18.183Z,87.56
2023-02-23T08:34:48.920Z,87.56
2023-02-23T08:37:21.582Z,87.57
2023-02-23T08:39:51.895Z,87.96
2023-02-23T08:42:21.866Z,87.88
2023-02-23T08:45:01.460Z,87.71
2023-02-23T08:47:34.449Z,87.46
2023-02-23T08:50:05.252Z,87.50
2023-02-23T08:52:37.986Z,87.72
2023-02-23T08:55:10.836Z,87.52
2023-02-23T08:57:41.639Z,87.54
2023-02-23T09:00:16.745Z,87.37
2023-02-23T09:02:48.422Z,87.36
2023-02-23T09:05:19.129Z,87.57
2023-02-23T09:07:52.135Z,87.48
2023-02-23T09:10:25.159Z,87.58
2023-02-23T09:12:55.181Z,87.38
2023-02-23T09:15:25.203Z,87.14
2023-02-23T09:17:55.231Z,87.23
2023-02-23T09:20:26.777Z,87.56
2023-02-23T09:22:59.498Z,87.59
2023-02-23T09:25:32.466Z,87.45
2023-02-23T09:28:03.625Z,87.52
2023-02-23T09:30:34.619Z,87.78
2023-02-23T09:33:07.454Z,87.66
2023-02-23T09:35:41.455Z,87.88
2023-02-23T09:38:14.200Z,87.64
2023-02-23T09:40:50.286Z,87.76
2023-02-23T09:43:26.935Z,87.83
2023-02-23T09:46:06.180Z,87.70
2023-02-23T09:48:37.369Z,87.50
2023-02-23T09:51:12.393Z,87.50
2023-02-23T09:53:49.475Z,87.45
2023-02-23T09:56:37.841Z,87.59
2023-02-23T09:59:19.375Z,87.64
2023-02-23T10:02:07.296Z,87.33
2023-02-23T10:04:45.585Z,87.43
2023-02-23T10:07:26.030Z,86.96
2023-02-23T10:10:18.301Z,87.00
2023-02-23T10:12:59.656Z,87.13
2023-02-23T10:15:39.877Z,87.16
2023-02-23T10:18:44.995Z,87.44
2023-02-23T10:21:22.031Z,87.47
2023-02-23T10:24:08.377Z,87.43
2023-02-23T10:26:49.923Z,87.69
2023-02-23T10:29:28.723Z,87.62
2023-02-23T10:32:02.913Z,87.85
2023-02-23T10:34:35.573Z,87.58
2023-02-23T10:37:15.339Z,87.78
2023-02-23T10:39:49.458Z,87.95
2023-02-23T10:42:28.925Z,87.96
2023-02-23T10:45:00.568Z,87.71
2023-02-23T10:47:36.080Z,87.66
2023-02-23T10:50:08.730Z,87.81
2023-02-23T10:52:44.604Z,87.75
2023-02-23T10:55:28.688Z,87.51
2023-02-23T10:58:17.174Z,87.54
2023-02-23T11:00:56.396Z,87.74
2023-02-23T11:03:32.474Z,87.68
2023-02-23T11:06:03.366Z,87.73
2023-02-23T11:08:41.448Z,87.56
2023-02-23T11:11:28.904Z,87.32
2023-02-23T11:14:01.651Z,87.58
2023-02-23T11:16:40.425Z,87.30
2023-02-23T11:19:27.873Z,87.41
2023-02-23T11:21:57.903Z,87.34
2023-02-23T11:24:32.135Z,87.28
2023-02-23T11:27:03.904Z,86.67
2023-02-23T11:29:40.878Z,86.93
2023-02-23T11:32:13.715Z,87.15
2023-02-23T11:34:44.586Z,87.17
2023-02-23T11:37:23.711Z,87.16
2023-02-23T11:40:02.101Z,86.75
2023-02-23T11:42:38.565Z,86.71
2023-02-23T11:45:23.138Z,86.22
2023-02-23T11:47:55.740Z,86.25
2023-02-23T11:50:29.456Z,86.08
2023-02-23T11:53:05.619Z,86.54
2023-02-23T11:55:41.634Z,86.61
2023-02-23T11:58:14.722Z,86.42
2023-02-23T12:00:58.099Z,86.67
2023-02-23T12:03:30.449Z,86.54
2023-02-23T12:06:05.775Z,86.58
2023-02-23T12:08:43.677Z,86.32
2023-02-23T12:11:18.258Z,86.06
2023-02-23T12:13:52.385Z,86.11
2023-02-23T12:16:29.236Z,86.30
2023-02-23T12:19:05.020Z,86.48
2023-02-23T12:21:43.537Z,86.72
2023-02-23T12:24:23.528Z,86.57
2023-02-23T12:26:57.441Z,86.91
2023-02-23T12:29:34.693Z,86.67
2023-02-23T12:32:14.901Z,86.67
2023-02-23T12:34:50.488Z,86.64
2023-02-23T12:37:37.213Z,86.39
2023-02-23T12:40:20.413Z,86.22
2023-02-23T12:42:59.462Z,85.88
2023-02-23T12:45:38.474Z,85.92
2023-02-23T12:48:30.322Z,85.87
2023-02-23T12:51:14.242Z,85.87
2023-02-23T12:53:46.609Z,86.37
2023-02-23T12:56:33.572Z,86.59
2023-02-23T12:59:20.452Z,86.75
2023-02-23T13:01:56.391Z,86.70
2023-02-23T13:04:43.919Z,87.22
2023-02-23T13:07:21.872Z,87.26
2023-02-23T13:10:04.212Z,86.88
2023-02-23T13:12:58.992Z,87.07
2023-02-23T13:15:33.294Z,87.20
2023-02-23T13:18:10.049Z,87.19
2023-02-23T13:20:48.060Z,87.26
2023-02-23T13:26:36.391Z,87.18
2023-02-23T13:29:13.627Z,87.33
2023-02-23T13:31:45.336Z,87.20
2023-02-23T13:34:24.455Z,86.85
2023-02-23T13:36:58.430Z,86.91
2023-02-23T13:39:53.013Z,86.75
2023-02-23T13:42:39.795Z,86.92
2023-02-23T13:45:25.924Z,87.25
2023-02-23T13:48:02.300Z,87.62
2023-02-23T13:50:46.600Z,87.51
2023-02-23T13:53:40.277Z,87.22
2023-02-23T13:56:12.806Z,86.89
2023-02-23T13:58:50.340Z,86.98
2023-02-23T14:01:24.015Z,86.87
2023-02-23T14:03:59.088Z,86.99
2023-02-23T14:06:31.389Z,86.78
2023-02-23T14:09:12.005Z,86.83
2023-02-23T14:11:48.639Z,87.14
2023-02-23T14:14:45.142Z,86.93
2023-02-23T14:17:44.506Z,87.06
2023-02-23T14:20:44.207Z,87.21
2023-02-23T14:23:42.552Z,87.38
2023-02-23T14:26:21.304Z,87.73
2023-02-23T14:29:11.718Z,87.45
2023-02-23T14:31:55.880Z,87.88
2023-02-23T14:34:44.826Z,87.64
2023-02-23T14:37:25.424Z,87.67
2023-02-23T14:39:57.484Z,87.94
2023-02-23T14:42:32.802Z,88.00
2023-02-23T14:45:08.734Z,88.09
2023-02-23T14:47:45.618Z,88.13
2023-02-23T14:50:22.488Z,88.23
2023-02-23T14:52:57.362Z,88.00
2023-02-23T14:55:30.086Z,88.19
2023-02-23T14:58:04.617Z,87.77
2023-02-23T15:00:39.241Z,87.92
2023-02-23T15:03:12.912Z,88.06
2023-02-23T15:05:47.053Z,88.09
2023-02-23T15:08:21.409Z,88.01
2023-02-23T15:10:54.746Z,88.24
2023-02-23T15:13:32.409Z,88.14
2023-02-23T15:16:07.001Z,88.23
2023-02-23T15:18:42.624Z,88.38
2023-02-23T15:21:17.360Z,88.38
2023-02-23T15:23:53.363Z,88.34
2023-02-23T15:26:32.539Z,88.34
2023-02-23T15:29:16.272Z,88.32
2023-02-23T15:31:53.606Z,88.55
2023-02-23T15:34:26.648Z,88.48
2023-02-23T15:37:01.413Z,88.55
2023-02-23T15:39:41.542Z,88.29
2023-02-23T15:42:18.135Z,88.32
2023-02-23T15:44:58.426Z,88.29
2023-02-23T15:47:37.664Z,88.24
2023-02-23T15:50:20.124Z,88.41
2023-02-23T15:53:03.699Z,88.60
2023-02-23T15:55:38.487Z,88.71
2023-02-23T15:58:17.305Z,88.61
2023-02-23T16:01:00.002Z,88.78
2023-02-23T16:03:38.163Z,88.56
2023-02-23T16:06:23.021Z,88.45
2023-02-23T16:09:06.558Z,88.42
2023-02-23T16:11:41.449Z,88.39
2023-02-23T16:14:20.518Z,88.25
2023-02-23T16:17:10.568Z,88.39
2023-02-23T16:19:42.941Z,88.30
2023-02-23T16:22:25.704Z,88.24
2023-02-23T16:25:05.246Z,88.39
2023-02-23T16:27:35.655Z,88.30
2023-02-23T16:30:23.634Z,88.37
2023-02-23T16:33:10.452Z,88.38
2023-02-23T16:35:45.433Z,88.29
2023-02-23T16:38:17.924Z,88.52
2023-02-23T16:40:49.288Z,88.41
2023-02-23T16:43:19.753Z,88.72
2023-02-23T16:45:50.174Z,88.50
2023-02-23T16:48:24.312Z,88.69
2023-02-23T16:50:56.022Z,88.66
2023-02-23T16:53:31.389Z,88.49
2023-02-23T16:56:13.284Z,88.58
2023-02-23T16:58:45.583Z,88.68
2023-02-23T17:01:18.964Z,88.84
2023-02-23T17:03:54.029Z,88.94
2023-02-23T17:06:24.480Z,88.92
2023-02-23T17:08:58.219Z,88.96
2023-02-23T17:11:29.286Z,88.93
2023-02-23T17:13:59.379Z,88.98
2023-02-23T17:16:29.308Z,89.00
2023-02-23T17:19:02.449Z,88.98
2023-02-23T17:21:33.996Z,89.13
2023-02-23T17:24:04.322Z,89.17
2023-02-23T17:26:34.290Z,89.14
2023-02-23T17:29:04.666Z,88.98
2023-02-23T17:31:36.340Z,88.95
2023-02-23T17:34:09.305Z,88.91
2023-02-23T17:36:39.336Z,88.74
2023-02-23T17:39:10.052Z,88.73
2023-02-23T17:41:40.077Z,88.14
2023-02-23T17:44:10.019Z,88.58
2023-02-23T17:46:40.207Z,88.45
2023-02-23T17:49:14.073Z,88.11
2023-02-23T17:51:43.936Z,87.91
2023-02-23T17:54:14.251Z,88.08
2023-02-23T17:56:44.792Z,87.80
2023-02-23T17:59:14.813Z,87.79
2023-02-23T18:01:47.216Z,87.68
2023-02-23T18:04:22.048Z,87.79
2023-02-23T18:06:54.547Z,87.85
2023-02-23T18:09:24.712Z,87.64
2023-02-23T18:11:56.463Z,87.55
2023-02-23T18:14:26.471Z,87.47
2023-02-23T18:16:59.978Z,87.49
2023-02-23T18:19:41.132Z,87.31
2023-02-23T18:22:11.146Z,87.26
2023-02-23T18:24:41.628Z,87.39
2023-02-23T18:27:12.804Z,87.34
2023-02-23T18:29:43.037Z,87.24
2023-02-23T18:32:15.969Z,87.37
2023-02-23T18:34:49.006Z,86.98
2023-02-23T18:37:25.431Z,87.21
2023-02-23T18:39:57.871Z,87.22
2023-02-23T18:42:28.087Z,87.14
2023-02-23T18:45:15.994Z,87.25
2023-02-23T18:47:49.963Z,87.22
2023-02-23T18:50:26.517Z,87.15
2023-02-23T18:53:03.656Z,87.15
2023-02-23T18:55:34.218Z,87.22
2023-02-23T18:58:05.265Z,87.29
2023-02-23T19:03:32.460Z,87.20
2023-02-23T19:06:06.170Z,87.50
2023-02-23T19:08:36.467Z,87.54
2023-02-23T19:11:07.503Z,87.99
2023-02-23T19:13:38.168Z,87.62
2023-02-23T19:16:09.282Z,87.63
2023-02-23T19:18:39.332Z,87.88
2023-02-23T19:21:11.958Z,87.97
2023-02-23T19:23:42.070Z,87.84
2023-02-23T19:26:12.826Z,88.06
2023-02-23T19:28:42.760Z,88.05
2023-02-23T19:31:16.054Z,88.02
2023-02-23T19:33:46.515Z,88.23
2023-02-23T19:36:21.995Z,88.33
2023-02-23T19:38:52.171Z,88.65
2023-02-23T19:41:24.067Z,87.96
2023-02-23T19:43:54.122Z,88.11
2023-02-23T19:46:25.677Z,88.37
2023-02-23T19:48:55.849Z,88.29
2023-02-23T19:51:31.279Z,88.22
2023-02-23T19:54:02.101Z,88.52
2023-02-23T19:56:32.512Z,88.32
2023-02-23T19:59:04.094Z,87.77
2023-02-23T20:01:34.691Z,87.73
2023-02-23T20:04:06.613Z,87.42
2023-02-23T20:06:48.649Z,86.69
2023-02-23T20:09:22.788Z,86.79
2023-02-23T20:11:53.173Z,86.59
2023-02-23T20:14:25.087Z,86.42
2023-02-23T20:16:56.224Z,86.63
2023-02-23T20:19:27.366Z,86.28
2023-02-23T20:22:03.960Z,86.34
2023-02-23T20:24:36.229Z,85.96
2023-02-23T20:27:11.545Z,86.11
2023-02-23T20:29:42.043Z,86.22
2023-02-23T20:32:12.250Z,86.17
2023-02-23T20:34:42.423Z,85.98
2023-02-23T20:37:15.195Z,85.85
2023-02-23T20:39:45.211Z,86.00
2023-02-23T20:42:15.147Z,86.05
2023-02-23T20:44:45.292Z,85.92
2023-02-23T20:47:15.279Z,86.00
2023-02-23T20:49:45.901Z,85.88
2023-02-23T20:52:20.172Z,85.48
2023-02-23T20:54:54.643Z,85.75
2023-02-23T20:57:42.443Z,85.53
2023-02-23T21:00:34.055Z,85.47
2023-02-23T21:03:06.462Z,85.58
2023-02-23T21:05:43.530Z,85.53
2023-02-23T21:08:16.634Z,85.40
2023-02-23T21:10:48.913Z,85.60
2023-02-23T21:13:23.504Z,85.51
2023-02-23T21:16:01.401Z,85.21
2023-02-23T21:18:40.846Z,85.22
2023-02-23T21:21:14.018Z,85.21
2023-02-23T21:23:49.406Z,85.21
2023-02-23T21:26:21.703Z,85.24
2023-02-23T21:28:51.795Z,85.28
2023-02-23T21:31:22.370Z,85.21
2023-02-23T21:33:52.674Z,85.32
2023-02-23T21:36:22.580Z,85.15
2023-02-23T21:38:57.487Z,85.23
2023-02-23T21:41:28.618Z,85.18
2023-02-23T21:43:58.523Z,85.36
2023-02-23T21:46:28.672Z,85.18
2023-02-23T21:48:58.942Z,85.33
2023-02-23T21:51:30.785Z,85.06
2023-02-23T21:54:03.445Z,85.31
2023-02-23T21:56:36.916Z,85.06
2023-02-23T21:59:08.513Z,85.01
2023-02-23T22:01:42.966Z,84.99
2023-02-23T22:04:16.994Z,85.35
2023-02-23T22:06:47.960Z,84.95
2023-02-23T22:09:20.697Z,84.70
2023-02-23T22:11:53.892Z,85.02
2023-02-23T22:14:24.093Z,84.71
2023-02-23T22:16:54.200Z,84.59
2023-02-23T22:19:24.247Z,84.72
2023-02-23T22:21:55.194Z,84.68
2023-02-23T22:24:28.041Z,84.59
2023-02-23T22:27:00.418Z,84.79
2023-02-23T22:29:30.706Z,84.99
2023-02-23T22:32:00.928Z,84.91
2023-02-23T22:34:31.307Z,84.76
2023-02-23T22:37:01.532Z,84.77
2023-02-23T22:39:35.041Z,84.84
2023-02-23T22:42:09.475Z,84.78
2023-02-23T22:44:41.571Z,85.11
2023-02-23T22:47:12.022Z,85.14
2023-02-23T22:49:42.549Z,85.09
2023-02-23T22:52:13.030Z,85.14
2023-02-23T22:54:48.282Z,85.39
2023-02-23T22:57:19.321Z,85.49
2023-02-23T22:59:54.891Z,85.49
2023-02-23T23:02:32.431Z,85.79
2023-02-23T23:05:02.755Z,85.64
2023-02-23T23:07:33.793Z,85.95
2023-02-23T23:10:09.326Z,86.11
2023-02-23T23:12:41.171Z,86.36
2023-02-23T23:15:15.419Z,86.25
2023-02-23T23:17:48.721Z,86.22
2023-02-23T23:20:25.976Z,86.20
2023-02-23T23:22:58.697Z,86.36
2023-02-23T23:25:33.400Z,86.19
2023-02-23T23:28:05.348Z,86.31
2023-02-23T23:30:37.517Z,86.03
2023-02-23T23:33:14.398Z,85.82
2023-02-23T23:35:49.129Z,85.94
2023-02-23T23:38:21.813Z,86.05
2023-02-23T23:40:55.639Z,86.26
2023-02-23T23:43:25.542Z,86.10
2023-02-23T23:45:56.895Z,85.97
2023-02-23T23:48:30.014Z,86.12
2023-02-23T23:51:05.489Z,85.88
2023-02-23T23:53:36.599Z,85.94
2023-02-23T23:56:12.372Z,85.89
2023-02-23T23:58:42.300Z,86.05
